Time;durP1;ratioP1;P1;durP2;ratioP2;P2;SDS_P1;SDS_P2;PMS_P1;PMS_P2;Temp;Humidity;BMP_temperature;BMP_pressure;BME280_temperature;BME280_humidity;BME280_pressure;Samples;Min_cycle;Max_cycle;Signal;HPM_P1;HPM_P2
2022/01/13 00:01:42;;;;;;;197.55;29.98;;;5.30;99.90;;;;;;5092186;28;20127;-81
2022/01/13 00:04:26;;;;;;;188.65;32.20;;;6.40;99.90;;;;;;5092546;28;20097;-82
2022/01/13 00:07:10;;;;;;;198.95;30.73;;;5.60;99.90;;;;;;5077170;28;20450;-81
2022/01/13 00:09:54;;;;;;;;;;;5.30;99.90;;;;;;5077381;28;20043;-82
2022/01/13 00:12:42;;;;;;;170.77;26.63;;;5.30;99.90;;;;;;5092527;28;19962;-81
2022/01/13 00:15:40;;;;;;;188.32;27.30;;;5.90;99.90;;;;;;5078675;28;20063;-81
2022/01/13 00:19:06;;;;;;;199.10;29.65;;;5.20;99.90;;;;;;5096235;28;20054;-82
2022/01/13 00:21:38;;;;;;;207.93;28.35;;;5.90;99.90;;;;;;5096394;28;20058;-81
2022/01/13 00:24:23;;;;;;;141.52;25.95;;;5.30;99.90;;;;;;5081334;28;20038;-81
2022/01/13 00:27:11;;;;;;;138.98;24.52;;;5.40;99.90;;;;;;5080430;28;20097;-82
2022/01/13 00:29:57;;;;;;;177.23;25.50;;;5.10;99.90;;;;;;5095976;28;20039;-81
2022/01/13 00:32:43;;;;;;;167.52;26.17;;;5.20;99.90;;;;;;5096279;28;20067;-81
2022/01/13 00:35:27;;;;;;;113.78;21.95;;;5.20;99.90;;;;;;5080779;28;20126;-82
2022/01/13 00:38:11;;;;;;;124.82;23.80;;;5.10;99.90;;;;;;5081072;28;20559;-81
2022/01/13 00:40:56;;;;;;;126.63;24.27;;;5.10;99.90;;;;;;5079369;28;20138;-81
2022/01/13 00:43:46;;;;;;;127.72;23.73;;;5.10;99.90;;;;;;5096046;28;20043;-81
2022/01/13 00:46:41;;;;;;;112.80;21.02;;;5.10;99.90;;;;;;5096182;28;20093;-81
2022/01/13 00:49:26;;;;;;;129.52;23.27;;;5.10;99.90;;;;;;5096091;28;20035;-81
2022/01/13 00:52:11;;;;;;;138.02;22.90;;;5.10;99.90;;;;;;5095418;28;20533;-81
2022/01/13 00:54:56;;;;;;;113.13;23.48;;;5.00;99.90;;;;;;5080274;28;20105;-81
2022/01/13 00:57:41;;;;;;;100.72;22.83;;;5.20;99.90;;;;;;5095620;28;20421;-81
2022/01/13 01:00:25;;;;;;;;;;;5.10;99.90;;;;;;5080798;28;20054;-81
2022/01/13 01:03:09;;;;;;;81.32;20.17;;;6.00;99.90;;;;;;5079896;28;19918;-81
2022/01/13 01:05:55;;;;;;;83.13;20.23;;;5.00;99.90;;;;;;5095290;28;20086;-81
2022/01/13 01:08:40;;;;;;;83.93;19.73;;;5.20;99.90;;;;;;5080629;28;20125;-81
2022/01/13 01:11:26;;;;;;;89.47;19.92;;;5.70;99.90;;;;;;5095585;28;20050;-81
2022/01/13 01:14:12;;;;;;;85.00;20.33;;;5.00;99.90;;;;;;5079726;28;20035;-81
2022/01/13 01:16:57;;;;;;;78.57;18.15;;;4.90;99.90;;;;;;5094459;28;20109;-81
2022/01/13 01:19:44;;;;;;;91.82;18.17;;;5.00;99.90;;;;;;5095563;28;20081;-81
2022/01/13 01:27:58;;;;;;;81.22;19.42;;;5.20;99.90;;;;;;5094064;28;20075;-81
2022/01/13 01:30:46;;;;;;;93.10;19.80;;;5.20;99.90;;;;;;5080289;28;20058;-81
2022/01/13 01:33:33;;;;;;;99.25;19.85;;;5.00;99.90;;;;;;5079601;28;20395;-81
2022/01/13 01:36:18;;;;;;;123.90;22.55;;;5.00;99.90;;;;;;5094562;28;20067;-81
2022/01/13 01:39:05;;;;;;;110.40;22.25;;;5.30;99.90;;;;;;5094620;28;20047;-81
2022/01/13 01:41:53;;;;;;;103.22;20.55;;;5.00;99.90;;;;;;5094405;28;20063;-81
2022/01/13 01:44:42;;;;;;;113.90;20.90;;;5.00;99.90;;;;;;5095048;28;20557;-81
2022/01/13 01:47:29;;;;;;;99.15;21.02;;;5.10;99.90;;;;;;5094780;28;20038;-81
2022/01/13 01:50:18;;;;;;;94.32;21.27;;;5.00;99.90;;;;;;5094160;28;20035;-81
2022/01/13 01:53:03;;;;;;;85.80;20.83;;;5.00;99.90;;;;;;5094283;28;20131;-81
2022/01/13 01:55:47;;;;;;;83.63;18.55;;;5.00;99.90;;;;;;5094690;28;20463;-81
2022/01/13 01:58:32;;;;;;;;;;;5.00;99.90;;;;;;5095311;28;20047;-81
2022/01/13 02:01:17;;;;;;;104.35;18.98;;;5.00;99.90;;;;;;5094105;28;19957;-81
2022/01/13 02:04:01;;;;;;;75.45;20.45;;;4.90;99.90;;;;;;5078800;28;20050;-81
2022/01/13 02:06:46;;;;;;;81.22;18.30;;;5.00;99.90;;;;;;5094218;28;20043;-81
2022/01/13 02:09:34;;;;;;;83.60;19.15;;;5.20;99.90;;;;;;5094359;28;20039;-80
2022/01/13 02:12:32;;;;;;;80.13;18.42;;;5.00;99.90;;;;;;5093921;28;20113;-80
2022/01/13 02:15:30;;;;;;;82.97;18.55;;;5.50;99.90;;;;;;5080577;28;20078;-80
2022/01/13 02:18:15;;;;;;;86.50;18.17;;;5.00;99.90;;;;;;5092546;28;20450;-80
2022/01/13 02:21:01;;;;;;;73.97;18.55;;;5.00;99.90;;;;;;5091240;28;20047;-80
2022/01/13 02:23:45;;;;;;;83.30;20.63;;;5.00;99.90;;;;;;5094107;28;20101;-80
2022/01/13 02:26:29;;;;;;;81.05;20.33;;;5.30;99.90;;;;;;5078316;28;20408;-80
2022/01/13 02:29:13;;;;;;;;;;;5.00;99.90;;;;;;5078475;28;20102;-80
2022/01/13 02:31:58;;;;;;;66.22;17.30;;;5.80;99.90;;;;;;5093665;28;19915;-80
2022/01/13 02:34:42;;;;;;;92.03;20.70;;;5.60;99.90;;;;;;5093957;28;20039;-80
2022/01/13 02:37:26;;;;;;;81.35;20.33;;;5.20;99.90;;;;;;5093267;28;20039;-80
2022/01/13 02:40:11;;;;;;;71.57;17.55;;;5.00;99.90;;;;;;5092484;28;20042;-80
2022/01/13 02:42:55;;;;;;;73.30;20.00;;;5.00;99.90;;;;;;5094166;28;20228;-80
2022/01/13 02:45:52;;;;;;;71.03;18.50;;;6.00;99.90;;;;;;5093640;28;20043;-80
2022/01/13 02:48:37;;;;;;;87.78;20.02;;;5.00;99.90;;;;;;5093541;28;20131;-80
2022/01/13 02:51:21;;;;;;;75.18;17.55;;;5.00;99.90;;;;;;5077857;28;20050;-80
2022/01/13 02:54:05;;;;;;;;;;;5.30;99.90;;;;;;5094028;28;20063;-80
2022/01/13 02:56:49;;;;;;;;;;;5.00;99.90;;;;;;5094145;28;19915;-80
2022/01/13 02:59:34;;;;;;;71.00;18.65;;;4.90;99.90;;;;;;5093401;28;19962;-80
2022/01/13 03:02:18;;;;;;;;;;;4.90;99.90;;;;;;5093418;28;20075;-80
2022/01/13 03:05:02;;;;;;;100.25;18.60;;;4.90;99.90;;;;;;5063985;28;19986;-80
2022/01/13 03:07:46;;;;;;;112.72;21.55;;;4.90;99.90;;;;;;5093309;28;20043;-80
2022/01/13 03:10:30;;;;;;;;;;;4.90;99.90;;;;;;5093254;28;20074;-80
2022/01/13 03:13:17;;;;;;;86.55;18.90;;;5.10;99.90;;;;;;5077634;28;19918;-80
2022/01/13 03:16:20;;;;;;;105.65;20.83;;;5.00;99.90;;;;;;5077895;28;20043;-80
2022/01/13 03:19:04;;;;;;;129.70;22.13;;;5.10;99.90;;;;;;5080902;28;20039;-80
2022/01/13 03:21:48;;;;;;;;;;;5.10;99.90;;;;;;5093675;28;20099;-80
2022/01/13 03:24:32;;;;;;;94.05;19.15;;;4.90;99.90;;;;;;5077359;28;20188;-80
2022/01/13 03:27:22;;;;;;;;;;;5.20;99.90;;;;;;5077632;28;20100;-80
2022/01/13 03:30:09;;;;;;;117.90;21.20;;;4.90;99.90;;;;;;5092961;28;20421;-80
2022/01/13 03:32:53;;;;;;;102.57;20.00;;;4.90;99.90;;;;;;5093090;28;20057;-80
2022/01/13 03:35:38;;;;;;;;;;;4.90;99.90;;;;;;5077250;28;20104;-80
2022/01/13 03:38:23;;;;;;;129.05;21.60;;;4.90;99.90;;;;;;5092552;28;20283;-79
2022/01/13 03:41:07;;;;;;;126.03;21.75;;;4.90;99.90;;;;;;5092622;28;20403;-80
2022/01/13 03:43:54;;;;;;;109.57;20.63;;;5.10;99.90;;;;;;5092762;28;20088;-80
2022/01/13 03:46:38;;;;;;;108.40;21.42;;;4.90;99.90;;;;;;5092291;28;20031;-80
2022/01/13 03:49:22;;;;;;;125.43;21.85;;;4.90;99.90;;;;;;5092232;28;20044;-80
2022/01/13 03:52:12;;;;;;;;;;;4.90;99.90;;;;;;5092956;28;20145;-80
2022/01/13 03:55:33;;;;;;;123.68;20.30;;;4.90;99.90;;;;;;5092760;28;19919;-80
2022/01/13 03:58:51;;;;;;;161.95;22.95;;;4.90;99.90;;;;;;5092496;28;20074;-80
2022/01/13 04:02:01;;;;;;;124.72;21.92;;;4.90;99.90;;;;;;5076898;28;20458;-80
2022/01/13 04:04:48;;;;;;;132.70;21.75;;;4.90;99.90;;;;;;5077358;28;20043;-80
2022/01/13 04:07:33;;;;;;;164.10;24.75;;;5.20;99.90;;;;;;5092102;28;20039;-80
2022/01/13 04:10:35;;;;;;;;;;;5.00;99.90;;;;;;5077378;28;20105;-80
2022/01/13 04:13:43;;;;;;;152.55;22.90;;;4.90;99.90;;;;;;5092435;28;19931;-80
2022/01/13 04:16:30;;;;;;;164.18;23.98;;;4.90;99.90;;;;;;5092020;28;20050;-80
2022/01/13 04:19:14;;;;;;;148.15;23.80;;;4.90;99.90;;;;;;5063045;28;20101;-81
2022/01/13 04:21:58;;;;;;;163.18;25.33;;;4.90;99.90;;;;;;5092510;28;20092;-80
2022/01/13 04:24:47;;;;;;;168.80;24.63;;;4.90;99.90;;;;;;5091970;28;20412;-81
2022/01/13 04:27:36;;;;;;;136.52;24.25;;;4.90;99.90;;;;;;5091429;28;20077;-80
2022/01/13 04:33:05;;;;;;;160.30;25.27;;;5.70;99.90;;;;;;5092342;28;20086;-81
2022/01/13 04:35:48;;;;;;;173.00;24.92;;;5.50;99.90;;;;;;5092841;28;20047;-81
2022/01/13 04:38:33;;;;;;;156.35;23.58;;;4.90;99.90;;;;;;5076554;28;20051;-80
2022/01/13 04:41:28;;;;;;;;;;;4.90;99.90;;;;;;5092485;28;20059;-80
2022/01/13 04:44:17;;;;;;;149.30;22.98;;;5.10;99.90;;;;;;5092104;28;19919;-80
2022/01/13 04:47:07;;;;;;;158.80;24.08;;;4.80;99.90;;;;;;5092377;28;20097;-80
2022/01/13 04:49:51;;;;;;;170.77;25.27;;;4.80;99.90;;;;;;5092211;28;20550;-81
2022/01/13 04:52:35;;;;;;;148.02;22.88;;;4.80;99.90;;;;;;5091708;28;20090;-80
2022/01/13 04:55:29;;;;;;;;;;;4.80;99.90;;;;;;5092686;28;20042;-80
2022/01/13 04:58:13;;;;;;;138.50;23.13;;;4.80;99.90;;;;;;5092041;28;19988;-81
2022/01/13 05:00:57;;;;;;;160.90;24.75;;;4.80;99.90;;;;;;5057799;28;20550;-80
2022/01/13 05:03:41;;;;;;;;;;;4.80;99.90;;;;;;5095231;28;20089;-81
2022/01/13 05:06:25;;;;;;;137.10;22.20;;;5.10;99.90;;;;;;5095805;28;19919;-81
2022/01/13 05:09:09;;;;;;;155.95;23.13;;;4.80;99.90;;;;;;5095449;28;20842;-81
2022/01/13 05:11:53;;;;;;;153.82;24.27;;;5.20;99.90;;;;;;5095108;28;20070;-81
2022/01/13 05:14:38;;;;;;;162.70;24.38;;;4.80;99.90;;;;;;5079720;28;20043;-80
2022/01/13 05:20:36;;;;;;;151.45;24.77;;;5.20;99.90;;;;;;5095426;28;20174;-80
2022/01/13 05:23:20;;;;;;;152.32;24.55;;;5.30;99.90;;;;;;5080179;28;20043;-81
2022/01/13 05:26:04;;;;;;;153.20;24.23;;;4.80;99.90;;;;;;5079944;28;20093;-81
2022/01/13 05:28:50;;;;;;;159.65;23.27;;;4.90;99.90;;;;;;5094677;28;20058;-80
2022/01/13 05:31:34;;;;;;;156.77;24.88;;;4.90;99.90;;;;;;5094823;28;20043;-80
2022/01/13 05:34:17;;;;;;;;;;;4.90;99.90;;;;;;5095460;28;20407;-81
2022/01/13 05:37:02;;;;;;;199.82;28.40;;;4.90;99.90;;;;;;5081587;28;19915;-80
2022/01/13 05:39:46;;;;;;;171.85;25.17;;;4.90;99.90;;;;;;5074343;28;20151;-80
2022/01/13 05:42:31;;;;;;;163.57;24.42;;;4.90;99.90;;;;;;5073505;28;20471;-80
2022/01/13 05:45:17;;;;;;;163.07;24.73;;;5.20;99.90;;;;;;5074865;28;20127;-81
2022/01/13 05:48:03;;;;;;;186.80;26.30;;;5.20;99.90;;;;;;5074689;28;20556;-80
2022/01/13 05:50:47;;;;;;;173.55;25.60;;;4.90;99.90;;;;;;5074226;28;20059;-81
2022/01/13 05:53:31;;;;;;;149.45;22.42;;;6.20;99.90;;;;;;5082180;28;20441;-80
2022/01/13 05:56:15;;;;;;;;;;;5.00;99.90;;;;;;5079859;28;20579;-81
2022/01/13 05:59:00;;;;;;;159.20;24.13;;;4.90;99.90;;;;;;5094119;28;20000;-80
2022/01/13 06:01:44;;;;;;;;;;;5.10;99.90;;;;;;5079313;28;20051;-80
2022/01/13 06:04:28;;;;;;;178.48;26.00;;;4.90;99.90;;;;;;5079227;28;19981;-81
2022/01/13 06:07:12;;;;;;;;;;;4.90;99.90;;;;;;5094940;28;20039;-80
2022/01/13 06:09:56;;;;;;;166.35;25.20;;;5.10;99.90;;;;;;5094078;28;19922;-81
2022/01/13 06:12:40;;;;;;;197.27;25.77;;;5.80;99.90;;;;;;5093323;28;20047;-80
2022/01/13 06:15:26;;;;;;;141.40;24.58;;;5.40;99.90;;;;;;5064795;28;20047;-80
2022/01/13 06:18:12;;;;;;;179.45;25.10;;;5.00;99.90;;;;;;5070460;28;20085;-80
2022/01/13 06:20:56;;;;;;;170.93;25.00;;;5.10;99.90;;;;;;5073385;28;20146;-80
2022/01/13 06:23:40;;;;;;;;;;;6.50;99.90;;;;;;5074083;28;20098;-80
2022/01/13 06:26:26;;;;;;;161.25;23.70;;;5.00;99.90;;;;;;5074013;28;20387;-81
2022/01/13 06:29:11;;;;;;;169.02;25.27;;;5.00;99.90;;;;;;5085993;28;20487;-80
2022/01/13 06:31:56;;;;;;;154.15;24.40;;;5.10;99.90;;;;;;5078206;28;20086;-80
2022/01/13 06:34:41;;;;;;;169.32;25.58;;;5.00;99.90;;;;;;5093802;28;20035;-81
2022/01/13 06:37:24;;;;;;;;;;;5.10;99.90;;;;;;5094310;28;20086;-81
2022/01/13 06:40:11;;;;;;;170.13;24.20;;;5.00;99.90;;;;;;5093849;28;19919;-80
2022/01/13 06:42:56;;;;;;;166.25;25.08;;;5.00;99.90;;;;;;5093518;28;20458;-81
2022/01/13 06:45:41;;;;;;;161.75;23.50;;;5.10;99.90;;;;;;5078118;28;20075;-81
2022/01/13 06:48:25;;;;;;;182.93;25.92;;;5.10;99.90;;;;;;5093838;28;20062;-80
2022/01/13 06:51:09;;;;;;;;;;;5.10;99.90;;;;;;5090991;28;20081;-80
2022/01/13 06:53:53;;;;;;;324.40;33.70;;;5.40;99.90;;;;;;5092629;28;19919;-80
2022/01/13 06:56:37;;;;;;;;;;;5.10;99.90;;;;;;5093373;28;20035;-80
2022/01/13 06:59:21;;;;;;;290.50;28.63;;;5.10;99.90;;;;;;5093210;28;19918;-80
2022/01/13 07:02:07;;;;;;;216.02;25.27;;;5.10;99.90;;;;;;5088163;28;20233;-80
2022/01/13 07:04:50;;;;;;;232.23;29.02;;;5.30;99.90;;;;;;5090741;28;20091;-79
2022/01/13 07:07:36;;;;;;;;;;;5.10;99.90;;;;;;5077832;28;20062;-79
2022/01/13 07:10:21;;;;;;;166.85;21.77;;;5.10;99.90;;;;;;5091987;28;19957;-79
2022/01/13 07:13:05;;;;;;;402.33;37.50;;;5.10;99.90;;;;;;5091997;28;20085;-79
2022/01/13 07:15:49;;;;;;;201.77;26.25;;;5.40;99.90;;;;;;5092009;28;20035;-79
2022/01/13 07:18:39;;;;;;;;;;;5.10;99.90;;;;;;5077592;28;20042;-80
2022/01/13 07:21:26;;;;;;;173.15;25.38;;;5.10;99.90;;;;;;5090382;28;20325;-81
2022/01/13 07:24:12;;;;;;;189.38;24.75;;;5.10;99.90;;;;;;5091288;28;20100;-80
2022/01/13 07:26:56;;;;;;;142.43;23.13;;;5.20;99.90;;;;;;5075009;28;20466;-80
2022/01/13 07:29:42;;;;;;;;;;;5.70;99.90;;;;;;5091971;28;20081;-80
2022/01/13 07:32:27;;;;;;;133.73;21.52;;;5.10;99.90;;;;;;5076988;28;19915;-81
2022/01/13 07:35:11;;;;;;;;;;;5.10;99.90;;;;;;5076634;28;20108;-81
2022/01/13 07:37:55;;;;;;;130.50;21.30;;;5.10;99.90;;;;;;5074829;28;19996;-80
2022/01/13 07:40:40;;;;;;;130.25;21.48;;;5.10;99.90;;;;;;5091572;28;20096;-80
2022/01/13 07:43:25;;;;;;;143.13;23.52;;;5.10;99.90;;;;;;5091404;28;20112;-80
2022/01/13 07:46:09;;;;;;;144.40;22.65;;;5.40;99.90;;;;;;5091616;28;20031;-80
2022/01/13 07:48:54;;;;;;;136.50;21.42;;;5.30;99.90;;;;;;5075924;28;20043;-80
2022/01/13 07:51:38;;;;;;;;;;;5.10;99.90;;;;;;5077129;28;20047;-81
2022/01/13 07:54:25;;;;;;;132.90;23.00;;;5.10;99.90;;;;;;5062944;28;19919;-81
2022/01/13 07:57:10;;;;;;;151.30;22.40;;;5.30;99.90;;;;;;5076993;28;20129;-81
2022/01/13 07:59:54;;;;;;;134.75;22.95;;;5.10;99.90;;;;;;5076624;28;20031;-81
2022/01/13 08:02:39;;;;;;;138.27;22.95;;;5.10;99.90;;;;;;5091917;28;20047;-81
2022/01/13 08:05:24;;;;;;;156.00;25.45;;;5.10;99.90;;;;;;5092164;28;20054;-81
2022/01/13 08:08:09;;;;;;;199.75;27.08;;;5.70;99.90;;;;;;5091482;28;20468;-82
2022/01/13 08:10:53;;;;;;;143.68;24.05;;;5.10;99.90;;;;;;5076635;28;20046;-81
2022/01/13 08:13:37;;;;;;;;;;;5.10;99.90;;;;;;5092251;28;20047;-81
2022/01/13 08:16:21;;;;;;;120.75;21.02;;;5.20;99.90;;;;;;5091232;28;19914;-82
2022/01/13 08:22:08;;;;;;;100.63;19.27;;;5.20;99.90;;;;;;5055941;28;20448;-81
2022/01/13 08:24:52;;;;;;;;;;;5.20;99.90;;;;;;5072685;28;20127;-81
2022/01/13 08:27:37;;;;;;;124.82;22.10;;;5.20;99.90;;;;;;5084703;28;19957;-81
2022/01/13 08:30:22;;;;;;;127.85;22.23;;;5.30;99.90;;;;;;5073822;28;20108;-82
2022/01/13 08:33:07;;;;;;;117.07;22.52;;;5.20;99.90;;;;;;5091688;28;20051;-81
2022/01/13 08:35:52;;;;;;;;;;;5.20;99.90;;;;;;5092990;28;20043;-82
2022/01/13 08:38:36;;;;;;;112.80;21.80;;;5.90;99.90;;;;;;5095820;28;19919;-81
2022/01/13 08:41:21;;;;;;;97.82;20.92;;;5.30;99.90;;;;;;5095158;28;20568;-81
2022/01/13 08:44:05;;;;;;;114.53;23.88;;;5.30;99.90;;;;;;5095521;28;20486;-81
2022/01/13 08:46:49;;;;;;;;;;;5.30;99.90;;;;;;5096378;28;20040;-81
2022/01/13 08:49:33;;;;;;;103.63;21.88;;;5.70;99.90;;;;;;5095928;28;20279;-81
2022/01/13 08:52:18;;;;;;;133.82;23.90;;;5.40;99.90;;;;;;5080192;28;20441;-81
2022/01/13 08:55:03;;;;;;;119.03;23.33;;;5.50;99.90;;;;;;5080392;28;20491;-81
2022/01/13 08:57:47;;;;;;;117.72;23.08;;;5.40;99.90;;;;;;5108579;28;20039;-81
2022/01/13 09:00:32;;;;;;;;;;;5.40;99.90;;;;;;5096191;28;20081;-81
2022/01/13 09:03:16;;;;;;;118.97;22.10;;;5.50;99.90;;;;;;5080152;28;19923;-81
2022/01/13 09:06:01;;;;;;;122.55;23.30;;;5.40;99.90;;;;;;5095850;28;20043;-82
2022/01/13 09:08:46;;;;;;;110.97;23.13;;;5.50;99.90;;;;;;5095379;28;20487;-81
2022/01/13 09:11:30;;;;;;;118.40;23.58;;;5.50;99.90;;;;;;5076843;28;20140;-82
2022/01/13 09:14:16;;;;;;;;;;;5.60;99.90;;;;;;5102034;28;20400;-81
2022/01/13 09:17:01;;;;;;;115.05;23.23;;;5.60;99.90;;;;;;5108629;28;19915;-81
2022/01/13 09:19:45;;;;;;;111.75;24.65;;;5.60;99.90;;;;;;5088626;28;20392;-81
2022/01/13 09:22:29;;;;;;;141.85;27.58;;;6.00;99.90;;;;;;5094585;28;20079;-81
2022/01/13 09:25:14;;;;;;;142.02;28.25;;;6.10;99.90;;;;;;5094880;28;20101;-81
2022/01/13 09:27:58;;;;;;;;;;;5.90;99.90;;;;;;5095604;28;20085;-82
2022/01/13 09:30:42;;;;;;;121.50;24.10;;;5.70;99.90;;;;;;5085911;28;19915;-81
2022/01/13 09:33:26;;;;;;;;;;;5.70;99.90;;;;;;5095111;28;20495;-82
2022/01/13 09:36:11;;;;;;;113.80;24.20;;;5.90;99.90;;;;;;5094322;28;20049;-81
2022/01/13 09:38:55;;;;;;;;;;;6.40;99.90;;;;;;5080036;28;20499;-82
2022/01/13 09:41:46;;;;;;;;;;;7.20;99.90;;;;;;5094599;28;19938;-82
2022/01/13 09:44:34;;;;;;;105.78;23.77;;;5.80;99.90;;;;;;5074346;28;19957;-82
2022/01/13 09:47:19;;;;;;;100.40;25.35;;;5.80;99.90;;;;;;5085317;28;20035;-82
2022/01/13 09:50:09;;;;;;;105.32;24.77;;;5.80;99.90;;;;;;5094601;28;20412;-81
2022/01/13 09:52:54;;;;;;;98.70;24.10;;;5.80;99.90;;;;;;5081014;28;20062;-82
2022/01/13 09:55:40;;;;;;;128.10;25.95;;;5.80;99.90;;;;;;5065650;28;20048;-81
2022/01/13 09:58:26;;;;;;;128.65;26.52;;;5.80;99.90;;;;;;5077736;28;20047;-81
2022/01/13 10:01:12;;;;;;;120.03;25.35;;;6.20;99.90;;;;;;5079143;28;20079;-82
2022/01/13 10:03:56;;;;;;;132.55;27.73;;;5.90;99.90;;;;;;5078909;28;20104;-82
2022/01/13 10:06:42;;;;;;;124.30;27.20;;;5.90;99.90;;;;;;5065267;28;20094;-81
2022/01/13 10:09:27;;;;;;;108.50;25.63;;;6.00;99.90;;;;;;5096533;28;20107;-81
2022/01/13 10:12:11;;;;;;;127.20;27.02;;;5.90;99.90;;;;;;5075043;28;20120;-82
2022/01/13 10:17:51;;;;;;;125.82;27.35;;;6.00;99.90;;;;;;5094068;28;19914;-81
2022/01/13 10:20:35;;;;;;;122.20;25.52;;;6.00;99.90;;;;;;5093302;28;20043;-82
2022/01/13 10:23:20;;;;;;;132.52;28.65;;;6.00;99.90;;;;;;5093648;28;20132;-80
2022/01/13 10:26:08;;;;;;;;;;;6.00;99.90;;;;;;5074251;28;20047;-82
2022/01/13 10:28:53;;;;;;;131.13;27.77;;;5.90;99.90;;;;;;5074444;28;20018;-81
2022/01/13 10:31:49;;;;;;;114.38;24.70;;;5.90;99.90;;;;;;5073314;28;20044;-81
2022/01/13 10:34:37;;;;;;;118.28;25.55;;;6.00;99.90;;;;;;5073248;28;20527;-81
2022/01/13 10:37:33;;;;;;;126.22;27.17;;;6.00;99.90;;;;;;5073208;28;20060;-81
2022/01/13 10:40:29;;;;;;;141.68;28.65;;;6.00;99.90;;;;;;5058133;28;20086;-80
2022/01/13 10:43:16;;;;;;;123.90;27.33;;;6.00;99.90;;;;;;5073395;28;20542;-81
2022/01/13 10:46:00;;;;;;;134.20;26.45;;;6.00;99.90;;;;;;5074483;28;20039;-81
2022/01/13 10:48:44;;;;;;;;;;;6.40;99.90;;;;;;5073968;28;20127;-81
2022/01/13 10:51:29;;;;;;;134.05;26.10;;;6.20;99.90;;;;;;5057853;28;19958;-81
2022/01/13 10:54:25;;;;;;;112.93;25.20;;;6.40;99.90;;;;;;5090333;28;20047;-80
2022/01/13 10:57:22;;;;;;;157.40;28.40;;;6.10;99.90;;;;;;5093197;28;20132;-81
2022/01/13 11:00:20;;;;;;;132.50;26.27;;;6.00;99.90;;;;;;5092796;28;20039;-81
2022/01/13 11:03:05;;;;;;;129.52;25.77;;;6.10;99.90;;;;;;5090517;28;20042;-81
2022/01/13 11:05:50;;;;;;;;;;;6.10;99.90;;;;;;5093792;28;20093;-81
2022/01/13 11:08:44;;;;;;;126.25;23.23;;;6.10;99.90;;;;;;5093056;28;19934;-81
2022/01/13 11:11:35;;;;;;;132.88;25.02;;;6.40;99.90;;;;;;5077623;28;20546;-81
2022/01/13 11:14:26;;;;;;;123.72;25.63;;;6.20;99.90;;;;;;5077969;28;20442;-81
2022/01/13 11:17:12;;;;;;;138.48;26.13;;;6.10;99.90;;;;;;5077801;28;20047;-81
2022/01/13 11:19:56;;;;;;;119.30;26.27;;;6.10;99.90;;;;;;5093202;28;20046;-81
2022/01/13 11:22:44;;;;;;;105.18;24.50;;;6.10;99.90;;;;;;5092133;28;20087;-81
2022/01/13 11:25:28;;;;;;;121.30;26.00;;;6.60;99.90;;;;;;5092547;28;20119;-80
2022/01/13 11:28:12;;;;;;;;;;;6.30;99.90;;;;;;5093543;28;20115;-81
2022/01/13 11:30:56;;;;;;;110.63;25.35;;;6.40;99.90;;;;;;5092963;28;20006;-81
2022/01/13 11:33:42;;;;;;;95.57;23.73;;;6.30;99.90;;;;;;5062859;28;20515;-80
2022/01/13 11:36:27;;;;;;;102.72;24.08;;;6.20;99.90;;;;;;5092377;28;20039;-80
2022/01/13 11:39:12;;;;;;;113.57;23.88;;;6.30;99.90;;;;;;5077460;28;20035;-81
2022/01/13 11:42:07;;;;;;;100.28;25.85;;;6.30;99.90;;;;;;5077323;28;20135;-81
2022/01/13 11:45:11;;;;;;;72.22;23.00;;;6.30;99.90;;;;;;5062291;28;20035;-80
2022/01/13 11:48:14;;;;;;;63.88;19.88;;;6.40;99.90;;;;;;5077465;28;20144;-81
2022/01/13 11:51:19;;;;;;;66.05;20.38;;;6.60;99.90;;;;;;5092713;28;20051;-81
2022/01/13 11:54:06;;;;;;;74.07;23.17;;;6.40;99.90;;;;;;5092716;28;20039;-80
2022/01/13 11:57:11;;;;;;;77.85;23.50;;;6.40;99.90;;;;;;5092042;28;20086;-81
2022/01/13 11:59:55;;;;;;;;;;;6.50;99.90;;;;;;5092874;28;20039;-80
2022/01/13 12:02:42;;;;;;;96.35;24.23;;;6.40;99.90;;;;;;5091619;28;20412;-81
2022/01/13 12:05:29;;;;;;;61.88;22.40;;;6.40;99.90;;;;;;5091926;28;20039;-80
2022/01/13 12:08:44;;;;;;;67.57;20.92;;;6.40;99.90;;;;;;5089614;28;20059;-80
2022/01/13 12:11:46;;;;;;;75.07;22.83;;;6.50;99.90;;;;;;5091502;28;20537;-83
2022/01/13 12:14:30;;;;;;;72.88;21.25;;;6.40;99.90;;;;;;5080606;28;20388;-80
2022/01/13 12:17:35;;;;;;;;;;;6.40;99.90;;;;;;5075345;28;20063;-80
2022/01/13 12:20:27;;;;;;;69.18;22.02;;;6.40;99.90;;;;;;5076341;28;20016;-80
2022/01/13 12:23:43;;;;;;;82.97;25.10;;;6.40;99.90;;;;;;5076119;28;20090;-80
2022/01/13 12:26:50;;;;;;;83.30;23.42;;;6.40;99.90;;;;;;5076273;28;20039;-81
2022/01/13 12:29:36;;;;;;;77.25;24.35;;;6.50;99.90;;;;;;5076082;28;20090;-80
2022/01/13 12:32:54;;;;;;;78.05;24.23;;;6.50;99.90;;;;;;5076053;28;20063;-80
2022/01/13 12:35:42;;;;;;;81.40;23.25;;;6.60;99.90;;;;;;5065966;28;20458;-80
2022/01/13 12:38:27;;;;;;;86.25;24.75;;;6.70;99.90;;;;;;5080669;28;20047;-81
2022/01/13 12:41:16;;;;;;;78.95;25.00;;;6.60;99.90;;;;;;5096138;28;20092;-80
2022/01/13 12:44:20;;;;;;;82.75;27.35;;;6.50;99.90;;;;;;5075318;28;20071;-80
2022/01/13 12:47:05;;;;;;;78.45;25.88;;;6.60;99.90;;;;;;5076048;28;20055;-80
2022/01/13 12:49:49;;;;;;;;;;;6.60;99.90;;;;;;5075560;28;20047;-80
2022/01/13 12:52:33;;;;;;;75.10;23.95;;;6.60;99.90;;;;;;5060103;28;19919;-80
2022/01/13 12:55:17;;;;;;;;;;;6.60;99.90;;;;;;5075721;28;20488;-80
2022/01/13 12:58:02;;;;;;;64.57;25.02;;;6.60;99.90;;;;;;5090636;28;19919;-80
2022/01/13 13:00:46;;;;;;;73.13;28.42;;;6.60;99.90;;;;;;5085663;28;20170;-80
2022/01/13 13:03:31;;;;;;;63.30;24.25;;;6.70;99.90;;;;;;5060356;28;20051;-80
2022/01/13 13:06:16;;;;;;;72.57;26.25;;;6.70;99.90;;;;;;5060495;28;20081;-80
2022/01/13 13:09:05;;;;;;;74.68;24.17;;;6.70;99.90;;;;;;5074639;28;20081;-80
2022/01/13 13:11:57;;;;;;;54.75;23.25;;;6.80;99.90;;;;;;5073545;28;20407;-80
2022/01/13 13:17:51;;;;;;;49.30;23.42;;;6.80;99.90;;;;;;5062065;28;20159;-81
2022/01/13 13:20:38;;;;;;;48.83;22.02;;;6.80;99.90;;;;;;5075035;28;20110;-81
2022/01/13 13:23:30;;;;;;;47.65;20.50;;;6.90;99.90;;;;;;5058965;28;20106;-81
2022/01/13 13:26:18;;;;;;;53.25;22.73;;;6.90;99.90;;;;;;5075016;28;20047;-81
2022/01/13 13:29:02;;;;;;;54.70;22.88;;;7.00;99.90;;;;;;5074384;28;20400;-81
2022/01/13 13:31:47;;;;;;;54.65;24.50;;;7.00;99.90;;;;;;5060401;28;20044;-80
2022/01/13 13:34:32;;;;;;;49.72;22.75;;;7.00;99.90;;;;;;5074808;28;20171;-81
2022/01/13 13:37:17;;;;;;;45.15;22.52;;;7.00;99.90;;;;;;5074653;28;20044;-81
2022/01/13 13:40:01;;;;;;;46.28;22.38;;;7.50;99.90;;;;;;5073971;28;20492;-81
2022/01/13 13:43:06;;;;;;;51.00;22.10;;;7.10;99.90;;;;;;5076841;28;20083;-81
2022/01/13 13:46:02;;;;;;;46.25;22.50;;;7.10;99.90;;;;;;5082878;28;20047;-81
2022/01/13 13:48:47;;;;;;;43.72;22.23;;;7.40;99.90;;;;;;5074121;28;20461;-80
2022/01/13 13:51:33;;;;;;;44.97;21.77;;;7.10;99.90;;;;;;5057635;28;20162;-81
2022/01/13 13:54:33;;;;;;;46.65;22.33;;;7.30;99.90;;;;;;5074512;28;20401;-81
2022/01/13 13:57:19;;;;;;;47.92;20.60;;;7.20;99.90;;;;;;5074325;28;20075;-81
2022/01/13 14:00:09;;;;;;;49.45;21.70;;;7.20;99.90;;;;;;5069000;28;20630;-81
2022/01/13 14:02:56;;;;;;;45.63;21.30;;;7.20;99.90;;;;;;5058821;28;20082;-80
2022/01/13 14:05:41;;;;;;;36.40;18.95;;;7.20;99.90;;;;;;5059421;28;20102;-81
2022/01/13 14:08:27;;;;;;;41.38;19.77;;;7.20;99.90;;;;;;5059062;28;20040;-81
2022/01/13 14:11:11;;;;;;;38.03;18.95;;;7.30;99.90;;;;;;5073665;28;20457;-81
2022/01/13 14:14:09;;;;;;;37.50;19.30;;;7.30;99.90;;;;;;5058575;28;20085;-81
2022/01/13 14:16:54;;;;;;;35.97;19.88;;;7.30;99.90;;;;;;5073654;28;20503;-81
2022/01/13 14:20:03;;;;;;;36.05;20.67;;;7.50;99.90;;;;;;5071408;28;20055;-81
2022/01/13 14:23:02;;;;;;;38.40;19.42;;;7.30;99.90;;;;;;5073927;28;20121;-81
2022/01/13 14:25:48;;;;;;;38.80;18.48;;;7.40;99.90;;;;;;5074033;28;20051;-81
2022/01/13 14:28:34;;;;;;;41.03;18.98;;;7.30;99.90;;;;;;5065889;28;20124;-84
2022/01/13 14:31:18;;;;;;;37.58;18.35;;;7.30;99.90;;;;;;5067824;28;20154;-83
2022/01/13 14:34:03;;;;;;;29.27;18.00;;;7.30;99.90;;;;;;5067704;28;20047;-82
2022/01/13 14:36:47;;;;;;;35.13;20.35;;;7.30;99.90;;;;;;5057549;28;20030;-81
2022/01/13 14:39:32;;;;;;;41.78;20.58;;;7.40;99.90;;;;;;5057405;28;20062;-81
2022/01/13 14:42:27;;;;;;;;;;;7.30;99.90;;;;;;5077251;28;20108;-81
2022/01/13 14:45:18;;;;;;;42.35;20.00;;;7.30;99.90;;;;;;5086993;28;19961;-81
2022/01/13 14:48:02;;;;;;;34.92;18.92;;;7.30;99.90;;;;;;5095358;28;20039;-81
2022/01/13 14:50:48;;;;;;;35.72;18.65;;;7.30;99.90;;;;;;5073517;28;20126;-81
2022/01/13 14:53:34;;;;;;;37.53;19.60;;;7.30;99.90;;;;;;5067251;28;20549;-81